sensor_id;sensor_type;location;lat;lon;timestamp;pressure;altitude;pressure_sealevel;temperature;humidity
73974;BME280;62336;-26.094;27.994;2022-11-03T00:00:24;84963.87;;;26.49;28.14
73974;BME280;62336;-26.094;27.994;2022-11-03T00:02:50;84960.11;;;26.81;27.53
73974;BME280;62336;-26.094;27.994;2022-11-03T00:05:15;84960.77;;;26.76;27.21
73974;BME280;62336;-26.094;27.994;2022-11-03T00:07:40;84958.80;;;27.03;26.97
73974;BME280;62336;-26.094;27.994;2022-11-03T00:10:06;84965.22;;;27.08;27.11
73974;BME280;62336;-26.094;27.994;2022-11-03T00:12:30;84968.15;;;27.38;26.92
73974;BME280;62336;-26.094;27.994;2022-11-03T00:14:56;84966.65;;;27.39;26.91
73974;BME280;62336;-26.094;27.994;2022-11-03T00:17:22;84961.35;;;27.53;26.70
73974;BME280;62336;-26.094;27.994;2022-11-03T00:19:46;84958.83;;;27.11;27.02
73974;BME280;62336;-26.094;27.994;2022-11-03T00:22:12;84954.93;;;26.77;27.24
73974;BME280;62336;-26.094;27.994;2022-11-03T00:24:38;84951.87;;;26.71;27.24
73974;BME280;62336;-26.094;27.994;2022-11-03T00:27:03;84945.84;;;26.86;27.19
73974;BME280;62336;-26.094;27.994;2022-11-03T00:29:29;84934.04;;;27.43;27.58
73974;BME280;62336;-26.094;27.994;2022-11-03T00:31:55;84930.42;;;27.19;27.28
73974;BME280;62336;-26.094;27.994;2022-11-03T00:34:21;84927.26;;;27.05;27.08
73974;BME280;62336;-26.094;27.994;2022-11-03T00:36:46;84925.50;;;27.19;27.18
73974;BME280;62336;-26.094;27.994;2022-11-03T00:39:12;84921.18;;;26.58;27.45
73974;BME280;62336;-26.094;27.994;2022-11-03T00:41:38;84922.16;;;27.04;27.14
73974;BME280;62336;-26.094;27.994;2022-11-03T00:44:04;84921.90;;;26.87;27.19
73974;BME280;62336;-26.094;27.994;2022-11-03T00:46:31;84925.67;;;27.01;27.14
73974;BME280;62336;-26.094;27.994;2022-11-03T00:48:55;84928.51;;;27.19;27.14
73974;BME280;62336;-26.094;27.994;2022-11-03T00:51:22;84928.01;;;26.92;27.38
73974;BME280;62336;-26.094;27.994;2022-11-03T00:53:49;84925.83;;;27.02;27.42
73974;BME280;62336;-26.094;27.994;2022-11-03T00:56:13;84923.34;;;26.91;27.73
73974;BME280;62336;-26.094;27.994;2022-11-03T00:58:38;84921.97;;;26.56;27.89
73974;BME280;62336;-26.094;27.994;2022-11-03T01:01:05;84916.89;;;26.79;27.43
73974;BME280;62336;-26.094;27.994;2022-11-03T01:03:30;84912.80;;;27.02;27.04
73974;BME280;62336;-26.094;27.994;2022-11-03T01:05:54;84920.38;;;26.79;27.36
73974;BME280;62336;-26.094;27.994;2022-11-03T01:08:20;84919.30;;;26.65;27.48
73974;BME280;62336;-26.094;27.994;2022-11-03T01:10:44;84917.51;;;26.78;27.42
73974;BME280;62336;-26.094;27.994;2022-11-03T01:13:09;84919.13;;;27.25;27.18
73974;BME280;62336;-26.094;27.994;2022-11-03T01:15:35;84913.86;;;26.88;27.29
73974;BME280;62336;-26.094;27.994;2022-11-03T01:18:01;84912.54;;;27.19;26.96
73974;BME280;62336;-26.094;27.994;2022-11-03T01:20:27;84914.76;;;27.08;27.12
73974;BME280;62336;-26.094;27.994;2022-11-03T01:22:52;84915.77;;;27.31;27.19
73974;BME280;62336;-26.094;27.994;2022-11-03T01:25:18;84914.71;;;26.92;27.60
73974;BME280;62336;-26.094;27.994;2022-11-03T01:27:44;84918.27;;;26.68;27.72
73974;BME280;62336;-26.094;27.994;2022-11-03T01:30:11;84916.45;;;26.86;27.33
73974;BME280;62336;-26.094;27.994;2022-11-03T01:32:35;84910.43;;;27.15;27.01
73974;BME280;62336;-26.094;27.994;2022-11-03T01:35:02;84907.67;;;26.76;27.40
73974;BME280;62336;-26.094;27.994;2022-11-03T01:37:28;84905.65;;;27.08;27.08
73974;BME280;62336;-26.094;27.994;2022-11-03T01:39:53;84905.41;;;26.57;27.51
73974;BME280;62336;-26.094;27.994;2022-11-03T01:42:19;84907.93;;;26.94;27.50
73974;BME280;62336;-26.094;27.994;2022-11-03T01:44:47;84904.19;;;26.74;27.44
73974;BME280;62336;-26.094;27.994;2022-11-03T01:47:19;84901.69;;;26.82;27.32
73974;BME280;62336;-26.094;27.994;2022-11-03T01:49:42;84903.84;;;26.22;27.85
73974;BME280;62336;-26.094;27.994;2022-11-03T01:52:07;84901.09;;;26.67;27.75
73974;BME280;62336;-26.094;27.994;2022-11-03T01:54:28;84900.23;;;26.66;28.50
73974;BME280;62336;-26.094;27.994;2022-11-03T01:56:53;84903.28;;;26.96;27.82
73974;BME280;62336;-26.094;27.994;2022-11-03T01:59:22;84901.76;;;26.66;27.60
73974;BME280;62336;-26.094;27.994;2022-11-03T02:01:44;84901.80;;;26.55;27.52
73974;BME280;62336;-26.094;27.994;2022-11-03T02:04:11;84905.22;;;26.77;27.31
73974;BME280;62336;-26.094;27.994;2022-11-03T02:06:36;84899.77;;;27.00;27.15
73974;BME280;62336;-26.094;27.994;2022-11-03T02:09:04;84896.83;;;27.09;27.18
73974;BME280;62336;-26.094;27.994;2022-11-03T02:11:26;84893.63;;;26.88;27.25
73974;BME280;62336;-26.094;27.994;2022-11-03T02:13:52;84888.61;;;26.89;27.26
73974;BME280;62336;-26.094;27.994;2022-11-03T02:16:19;84891.79;;;26.78;27.43
73974;BME280;62336;-26.094;27.994;2022-11-03T02:18:45;84891.92;;;26.89;27.96
73974;BME280;62336;-26.094;27.994;2022-11-03T02:21:17;84891.58;;;26.94;28.02
73974;BME280;62336;-26.094;27.994;2022-11-03T02:23:39;84894.58;;;26.53;27.45
73974;BME280;62336;-26.094;27.994;2022-11-03T02:26:01;84894.64;;;27.04;27.01
73974;BME280;62336;-26.094;27.994;2022-11-03T02:28:29;84893.97;;;26.71;27.36
73974;BME280;62336;-26.094;27.994;2022-11-03T02:31:02;84888.02;;;26.80;27.12
73974;BME280;62336;-26.094;27.994;2022-11-03T02:33:34;84885.05;;;26.63;27.40
73974;BME280;62336;-26.094;27.994;2022-11-03T02:35:50;84887.68;;;26.80;27.24
73974;BME280;62336;-26.094;27.994;2022-11-03T02:38:14;84888.31;;;26.82;27.37
73974;BME280;62336;-26.094;27.994;2022-11-03T02:40:40;84894.85;;;26.65;27.55
73974;BME280;62336;-26.094;27.994;2022-11-03T02:43:03;84894.05;;;26.88;27.62
73974;BME280;62336;-26.094;27.994;2022-11-03T02:45:28;84897.37;;;26.12;27.95
73974;BME280;62336;-26.094;27.994;2022-11-03T02:47:56;84890.23;;;26.39;27.88
73974;BME280;62336;-26.094;27.994;2022-11-03T02:50:18;84894.22;;;26.97;28.21
73974;BME280;62336;-26.094;27.994;2022-11-03T02:52:45;84892.07;;;26.81;27.73
73974;BME280;62336;-26.094;27.994;2022-11-03T02:55:16;84882.14;;;26.67;27.57
73974;BME280;62336;-26.094;27.994;2022-11-03T02:57:39;84879.16;;;26.70;27.30
73974;BME280;62336;-26.094;27.994;2022-11-03T03:00:05;84883.50;;;26.89;27.10
73974;BME280;62336;-26.094;27.994;2022-11-03T03:02:33;84883.53;;;26.69;27.23
73974;BME280;62336;-26.094;27.994;2022-11-03T03:04:54;84882.84;;;26.73;27.31
73974;BME280;62336;-26.094;27.994;2022-11-03T03:07:21;84873.92;;;26.46;27.58
73974;BME280;62336;-26.094;27.994;2022-11-03T03:09:47;84872.51;;;26.55;27.42
73974;BME280;62336;-26.094;27.994;2022-11-03T03:12:10;84874.96;;;26.60;27.48
73974;BME280;62336;-26.094;27.994;2022-11-03T03:14:37;84876.85;;;26.63;27.45
73974;BME280;62336;-26.094;27.994;2022-11-03T03:17:04;84879.20;;;27.17;27.73
73974;BME280;62336;-26.094;27.994;2022-11-03T03:19:35;84882.47;;;26.87;27.71
73974;BME280;62336;-26.094;27.994;2022-11-03T03:21:53;84888.39;;;27.06;27.04
73974;BME280;62336;-26.094;27.994;2022-11-03T03:24:25;84887.55;;;26.97;27.31
73974;BME280;62336;-26.094;27.994;2022-11-03T03:26:44;84895.55;;;26.70;27.29
73974;BME280;62336;-26.094;27.994;2022-11-03T03:29:10;84900.49;;;26.74;27.18
73974;BME280;62336;-26.094;27.994;2022-11-03T03:31:35;84903.62;;;26.75;27.72
73974;BME280;62336;-26.094;27.994;2022-11-03T03:33:59;84908.92;;;26.72;27.43
73974;BME280;62336;-26.094;27.994;2022-11-03T03:36:25;84908.65;;;26.27;27.61
73974;BME280;62336;-26.094;27.994;2022-11-03T03:38:51;84909.00;;;26.40;27.79
73974;BME280;62336;-26.094;27.994;2022-11-03T03:41:15;84917.11;;;26.33;27.88
73974;BME280;62336;-26.094;27.994;2022-11-03T03:43:40;84917.03;;;26.18;27.96
73974;BME280;62336;-26.094;27.994;2022-11-03T03:46:07;84921.15;;;26.59;27.87
73974;BME280;62336;-26.094;27.994;2022-11-03T03:48:31;84928.24;;;26.82;28.48
73974;BME280;62336;-26.094;27.994;2022-11-03T03:50:57;84926.21;;;25.90;28.30
73974;BME280;62336;-26.094;27.994;2022-11-03T03:53:21;84933.67;;;26.64;27.70
73974;BME280;62336;-26.094;27.994;2022-11-03T03:55:49;84940.05;;;26.51;27.63
73974;BME280;62336;-26.094;27.994;2022-11-03T03:58:14;84942.73;;;27.09;27.56
73974;BME280;62336;-26.094;27.994;2022-11-03T04:00:38;84945.57;;;26.74;27.35
73974;BME280;62336;-26.094;27.994;2022-11-03T04:03:03;84949.72;;;26.80;27.34
73974;BME280;62336;-26.094;27.994;2022-11-03T04:05:28;84954.21;;;26.70;27.60
73974;BME280;62336;-26.094;27.994;2022-11-03T04:07:53;84951.85;;;26.54;27.56
73974;BME280;62336;-26.094;27.994;2022-11-03T04:10:19;84948.40;;;26.26;28.09
73974;BME280;62336;-26.094;27.994;2022-11-03T04:12:43;84952.37;;;26.24;27.88
73974;BME280;62336;-26.094;27.994;2022-11-03T04:15:11;84955.01;;;26.36;28.17
73974;BME280;62336;-26.094;27.994;2022-11-03T04:17:34;84958.61;;;26.55;28.30
73974;BME280;62336;-26.094;27.994;2022-11-03T04:19:59;84955.91;;;26.66;27.81
73974;BME280;62336;-26.094;27.994;2022-11-03T04:22:28;84959.10;;;26.79;27.51
73974;BME280;62336;-26.094;27.994;2022-11-03T04:24:50;84961.41;;;26.59;27.73
73974;BME280;62336;-26.094;27.994;2022-11-03T04:27:26;84957.58;;;26.70;27.58
73974;BME280;62336;-26.094;27.994;2022-11-03T04:29:41;84959.75;;;26.85;27.46
73974;BME280;62336;-26.094;27.994;2022-11-03T04:32:13;84963.39;;;26.89;27.51
73974;BME280;62336;-26.094;27.994;2022-11-03T04:34:32;84963.98;;;26.78;27.59
73974;BME280;62336;-26.094;27.994;2022-11-03T04:36:56;84963.59;;;26.85;27.67
73974;BME280;62336;-26.094;27.994;2022-11-03T04:39:22;84967.68;;;26.99;27.48
73974;BME280;62336;-26.094;27.994;2022-11-03T04:41:47;84967.86;;;26.79;27.48
73974;BME280;62336;-26.094;27.994;2022-11-03T04:44:14;84967.67;;;26.54;27.69
73974;BME280;62336;-26.094;27.994;2022-11-03T04:46:37;84965.09;;;27.07;28.37
73974;BME280;62336;-26.094;27.994;2022-11-03T04:49:06;84964.82;;;26.03;28.34
73974;BME280;62336;-26.094;27.994;2022-11-03T04:51:33;84969.56;;;26.96;27.68
73974;BME280;62336;-26.094;27.994;2022-11-03T04:53:54;84965.73;;;26.72;27.60
73974;BME280;62336;-26.094;27.994;2022-11-03T04:56:21;84964.47;;;26.97;27.63
73974;BME280;62336;-26.094;27.994;2022-11-03T04:58:44;84961.24;;;27.15;27.58
73974;BME280;62336;-26.094;27.994;2022-11-03T05:01:12;84966.76;;;27.19;27.36
73974;BME280;62336;-26.094;27.994;2022-11-03T05:03:35;84969.42;;;27.06;27.59
73974;BME280;62336;-26.094;27.994;2022-11-03T05:06:07;84969.43;;;26.93;27.74
73974;BME280;62336;-26.094;27.994;2022-11-03T05:08:24;84962.21;;;26.91;27.53
73974;BME280;62336;-26.094;27.994;2022-11-03T05:10:50;84957.22;;;26.93;27.71
73974;BME280;62336;-26.094;27.994;2022-11-03T05:13:23;84955.77;;;27.06;27.59
73974;BME280;62336;-26.094;27.994;2022-11-03T05:15:42;84962.37;;;26.85;28.06
73974;BME280;62336;-26.094;27.994;2022-11-03T05:18:14;84962.73;;;26.89;28.06
73974;BME280;62336;-26.094;27.994;2022-11-03T05:20:35;84960.54;;;26.64;27.75
73974;BME280;62336;-26.094;27.994;2022-11-03T05:22:56;84965.69;;;26.84;27.65
73974;BME280;62336;-26.094;27.994;2022-11-03T05:25:35;84962.70;;;27.00;27.64
73974;BME280;62336;-26.094;27.994;2022-11-03T05:27:47;84966.84;;;26.77;27.89
73974;BME280;62336;-26.094;27.994;2022-11-03T05:30:13;84962.98;;;27.10;27.87
73974;BME280;62336;-26.094;27.994;2022-11-03T05:32:38;84961.28;;;26.92;27.65
73974;BME280;62336;-26.094;27.994;2022-11-03T05:35:07;84965.55;;;27.23;27.71
73974;BME280;62336;-26.094;27.994;2022-11-03T05:37:29;84959.36;;;27.40;27.56
73974;BME280;62336;-26.094;27.994;2022-11-03T05:39:56;84953.77;;;27.68;27.73
73974;BME280;62336;-26.094;27.994;2022-11-03T05:42:25;84950.09;;;27.75;27.79
73974;BME280;62336;-26.094;27.994;2022-11-03T05:44:45;84946.58;;;27.83;27.61
73974;BME280;62336;-26.094;27.994;2022-11-03T05:47:16;84944.78;;;26.87;27.40
73974;BME280;62336;-26.094;27.994;2022-11-03T05:49:35;84952.62;;;27.33;27.16
73974;BME280;62336;-26.094;27.994;2022-11-03T05:52:00;84956.74;;;27.49;27.08
73974;BME280;62336;-26.094;27.994;2022-11-03T05:54:30;84954.13;;;27.59;26.80
73974;BME280;62336;-26.094;27.994;2022-11-03T05:56:50;84956.62;;;27.74;26.77
73974;BME280;62336;-26.094;27.994;2022-11-03T05:59:22;84956.34;;;27.64;27.22
73974;BME280;62336;-26.094;27.994;2022-11-03T06:01:42;84960.97;;;27.79;27.19
73974;BME280;62336;-26.094;27.994;2022-11-03T06:04:14;84958.60;;;27.65;27.30
73974;BME280;62336;-26.094;27.994;2022-11-03T06:06:35;84957.54;;;27.55;27.34
73974;BME280;62336;-26.094;27.994;2022-11-03T06:08:59;84953.56;;;27.51;27.55
73974;BME280;62336;-26.094;27.994;2022-11-03T06:11:27;84949.71;;;27.33;27.27
73974;BME280;62336;-26.094;27.994;2022-11-03T06:13:47;84952.76;;;27.69;27.57
73974;BME280;62336;-26.094;27.994;2022-11-03T06:18:38;84961.87;;;27.92;27.31
73974;BME280;62336;-26.094;27.994;2022-11-03T06:21:08;84959.56;;;27.69;27.18
73974;BME280;62336;-26.094;27.994;2022-11-03T06:23:33;84964.60;;;27.51;27.22
73974;BME280;62336;-26.094;27.994;2022-11-03T06:25:55;84967.54;;;27.45;27.09
73974;BME280;62336;-26.094;27.994;2022-11-03T06:28:23;84969.88;;;27.52;27.00
73974;BME280;62336;-26.094;27.994;2022-11-03T06:30:48;84969.61;;;27.57;27.16
73974;BME280;62336;-26.094;27.994;2022-11-03T06:33:14;84971.18;;;27.72;27.27
73974;BME280;62336;-26.094;27.994;2022-11-03T06:35:38;84973.10;;;27.68;27.30
73974;BME280;62336;-26.094;27.994;2022-11-03T06:38:07;84972.40;;;27.93;27.09
73974;BME280;62336;-26.094;27.994;2022-11-03T06:40:33;84965.62;;;27.89;27.08
73974;BME280;62336;-26.094;27.994;2022-11-03T06:42:54;84962.83;;;27.84;27.05
73974;BME280;62336;-26.094;27.994;2022-11-03T06:45:21;84957.62;;;27.80;27.06
73974;BME280;62336;-26.094;27.994;2022-11-03T06:47:44;84955.47;;;28.22;27.03
73974;BME280;62336;-26.094;27.994;2022-11-03T06:50:19;84957.30;;;28.01;26.62
73974;BME280;62336;-26.094;27.994;2022-11-03T06:52:38;84957.42;;;28.11;26.57
73974;BME280;62336;-26.094;27.994;2022-11-03T06:55:13;84964.21;;;28.23;26.44
73974;BME280;62336;-26.094;27.994;2022-11-03T06:57:26;84962.88;;;28.24;26.42
73974;BME280;62336;-26.094;27.994;2022-11-03T06:59:52;84969.49;;;27.85;26.52
73974;BME280;62336;-26.094;27.994;2022-11-03T07:02:31;84964.61;;;28.03;26.75
73974;BME280;62336;-26.094;27.994;2022-11-03T07:04:42;84965.24;;;27.87;26.60
73974;BME280;62336;-26.094;27.994;2022-11-03T07:07:08;84969.49;;;27.85;26.76
73974;BME280;62336;-26.094;27.994;2022-11-03T07:09:33;84966.25;;;27.67;26.89
73974;BME280;62336;-26.094;27.994;2022-11-03T07:11:59;84972.26;;;27.93;27.01
73974;BME280;62336;-26.094;27.994;2022-11-03T07:14:27;84978.30;;;27.93;27.47
73974;BME280;62336;-26.094;27.994;2022-11-03T07:16:52;84980.70;;;27.87;27.00
73974;BME280;62336;-26.094;27.994;2022-11-03T07:19:20;84984.66;;;28.42;26.51
73974;BME280;62336;-26.094;27.994;2022-11-03T07:21:45;84985.84;;;28.22;26.56
73974;BME280;62336;-26.094;27.994;2022-11-03T07:24:14;84987.94;;;28.44;26.46
73974;BME280;62336;-26.094;27.994;2022-11-03T07:26:33;84990.68;;;28.50;26.51
73974;BME280;62336;-26.094;27.994;2022-11-03T07:28:59;84995.72;;;27.97;26.69
73974;BME280;62336;-26.094;27.994;2022-11-03T07:31:24;85000.14;;;28.29;26.81
73974;BME280;62336;-26.094;27.994;2022-11-03T07:33:47;85003.51;;;27.91;26.88
73974;BME280;62336;-26.094;27.994;2022-11-03T07:36:17;85001.66;;;28.12;27.07
73974;BME280;62336;-26.094;27.994;2022-11-03T07:38:38;85009.90;;;27.64;26.98
73974;BME280;62336;-26.094;27.994;2022-11-03T07:41:04;85001.38;;;27.38;27.13
73974;BME280;62336;-26.094;27.994;2022-11-03T07:43:32;84996.84;;;27.94;27.10
73974;BME280;62336;-26.094;27.994;2022-11-03T07:45:56;84996.74;;;27.96;26.68
73974;BME280;62336;-26.094;27.994;2022-11-03T07:48:22;84994.34;;;27.76;26.58
73974;BME280;62336;-26.094;27.994;2022-11-03T07:50:46;84998.42;;;27.58;26.33
73974;BME280;62336;-26.094;27.994;2022-11-03T07:53:15;84998.83;;;28.05;26.57
73974;BME280;62336;-26.094;27.994;2022-11-03T07:55:36;85006.38;;;27.92;26.74
73974;BME280;62336;-26.094;27.994;2022-11-03T07:58:11;85011.99;;;27.85;26.53
73974;BME280;62336;-26.094;27.994;2022-11-03T08:00:27;85010.34;;;27.68;26.80
73974;BME280;62336;-26.094;27.994;2022-11-03T10:03:03;84956.80;;;10.49;98.99
73974;BME280;62336;-26.094;27.994;2022-11-03T10:05:25;84947.20;;;15.13;73.04
73974;BME280;62336;-26.094;27.994;2022-11-03T10:07:48;84941.98;;;18.69;59.45
73974;BME280;62336;-26.094;27.994;2022-11-03T10:10:17;84937.34;;;21.05;47.75
73974;BME280;62336;-26.094;27.994;2022-11-03T10:12:39;84930.05;;;23.08;43.88
73974;BME280;62336;-26.094;27.994;2022-11-03T10:15:08;84928.03;;;24.48;38.98
73974;BME280;62336;-26.094;27.994;2022-11-03T10:17:30;84928.04;;;25.44;36.08
73974;BME280;62336;-26.094;27.994;2022-11-03T10:19:57;84931.35;;;26.42;33.81
73974;BME280;62336;-26.094;27.994;2022-11-03T10:22:21;84928.47;;;27.35;32.41
73974;BME280;62336;-26.094;27.994;2022-11-03T10:24:48;84928.72;;;27.99;31.43
73974;BME280;62336;-26.094;27.994;2022-11-03T10:27:22;84925.73;;;28.10;29.88
73974;BME280;62336;-26.094;27.994;2022-11-03T10:29:37;84924.38;;;28.56;29.88
73974;BME280;62336;-26.094;27.994;2022-11-03T10:32:03;84923.26;;;28.11;29.47
73974;BME280;62336;-26.094;27.994;2022-11-03T10:34:34;84916.44;;;28.69;28.94
73974;BME280;62336;-26.094;27.994;2022-11-03T10:39:28;84913.56;;;28.83;28.26
73974;BME280;62336;-26.094;27.994;2022-11-03T10:41:55;84916.88;;;29.09;28.09
73974;BME280;62336;-26.094;27.994;2022-11-03T10:44:16;84915.59;;;29.08;27.80
73974;BME280;62336;-26.094;27.994;2022-11-03T10:46:37;84909.82;;;28.76;27.88
73974;BME280;62336;-26.094;27.994;2022-11-03T10:49:03;84908.83;;;28.98;27.86
73974;BME280;62336;-26.094;27.994;2022-11-03T10:51:25;84903.97;;;29.00;27.82
73974;BME280;62336;-26.094;27.994;2022-11-03T10:53:52;84903.07;;;28.95;27.72
73974;BME280;62336;-26.094;27.994;2022-11-03T10:56:16;84900.12;;;29.55;27.95
73974;BME280;62336;-26.094;27.994;2022-11-03T10:58:43;84896.84;;;29.51;27.50
73974;BME280;62336;-26.094;27.994;2022-11-03T11:01:09;84895.94;;;28.98;27.53
73974;BME280;62336;-26.094;27.994;2022-11-03T11:03:37;84889.53;;;29.44;27.02
73974;BME280;62336;-26.094;27.994;2022-11-03T11:06:00;84892.10;;;29.50;26.64
73974;BME280;62336;-26.094;27.994;2022-11-03T11:08:25;84887.00;;;29.64;26.77
73974;BME280;62336;-26.094;27.994;2022-11-03T11:10:51;84881.41;;;29.72;27.04
73974;BME280;62336;-26.094;27.994;2022-11-03T11:13:27;84876.75;;;30.00;26.58
73974;BME280;62336;-26.094;27.994;2022-11-03T11:15:44;84872.72;;;29.73;26.64
73974;BME280;62336;-26.094;27.994;2022-11-03T11:18:09;84871.48;;;29.47;26.81
73974;BME280;62336;-26.094;27.994;2022-11-03T11:20:36;84869.68;;;29.73;27.42
73974;BME280;62336;-26.094;27.994;2022-11-03T11:27:56;84860.12;;;29.57;26.69
73974;BME280;62336;-26.094;27.994;2022-11-03T11:32:54;84855.71;;;29.71;26.30
73974;BME280;62336;-26.094;27.994;2022-11-03T11:35:09;84853.57;;;29.39;26.89
73974;BME280;62336;-26.094;27.994;2022-11-03T11:37:34;84850.93;;;29.59;26.97
73974;BME280;62336;-26.094;27.994;2022-11-03T11:39:58;84847.81;;;29.66;27.05
73974;BME280;62336;-26.094;27.994;2022-11-03T11:42:23;84843.86;;;29.45;26.81
73974;BME280;62336;-26.094;27.994;2022-11-03T11:44:55;84841.29;;;29.47;26.93
73974;BME280;62336;-26.094;27.994;2022-11-03T11:47:24;84836.03;;;29.73;26.98
73974;BME280;62336;-26.094;27.994;2022-11-03T11:49:39;84836.68;;;29.91;26.76
73974;BME280;62336;-26.094;27.994;2022-11-03T11:52:07;84829.15;;;30.02;26.58
73974;BME280;62336;-26.094;27.994;2022-11-03T11:54:30;84824.03;;;29.96;26.28
73974;BME280;62336;-26.094;27.994;2022-11-03T11:56:56;84825.28;;;29.91;26.24
73974;BME280;62336;-26.094;27.994;2022-11-03T11:59:22;84820.54;;;30.16;26.22
73974;BME280;62336;-26.094;27.994;2022-11-03T12:01:49;84815.66;;;29.89;26.20
73974;BME280;62336;-26.094;27.994;2022-11-03T12:04:18;84814.59;;;30.03;26.15
73974;BME280;62336;-26.094;27.994;2022-11-03T12:06:38;84814.03;;;30.14;26.16
73974;BME280;62336;-26.094;27.994;2022-11-03T12:09:05;84813.28;;;29.92;26.54
73974;BME280;62336;-26.094;27.994;2022-11-03T12:11:41;84808.15;;;29.84;26.45
73974;BME280;62336;-26.094;27.994;2022-11-03T12:13:55;84798.89;;;30.31;26.34
73974;BME280;62336;-26.094;27.994;2022-11-03T12:16:29;84797.18;;;29.76;26.50
73974;BME280;62336;-26.094;27.994;2022-11-03T12:18:45;84793.56;;;30.30;26.32
73974;BME280;62336;-26.094;27.994;2022-11-03T12:21:11;84790.05;;;30.12;25.90
73974;BME280;62336;-26.094;27.994;2022-11-03T12:23:38;84788.72;;;30.42;25.86
73974;BME280;62336;-26.094;27.994;2022-11-03T12:26:01;84782.53;;;30.16;26.03
73974;BME280;62336;-26.094;27.994;2022-11-03T12:28:32;84776.53;;;30.32;26.12
73974;BME280;62336;-26.094;27.994;2022-11-03T12:30:51;84778.30;;;30.07;26.08
73974;BME280;62336;-26.094;27.994;2022-11-03T12:33:16;84778.70;;;30.49;26.04
73974;BME280;62336;-26.094;27.994;2022-11-03T12:35:41;84775.14;;;30.12;25.90
73974;BME280;62336;-26.094;27.994;2022-11-03T12:38:07;84770.93;;;30.10;25.94
73974;BME280;62336;-26.094;27.994;2022-11-03T12:40:32;84766.83;;;29.80;26.02
73974;BME280;62336;-26.094;27.994;2022-11-03T12:42:58;84762.83;;;29.83;26.03
73974;BME280;62336;-26.094;27.994;2022-11-03T12:45:24;84762.13;;;30.54;26.13
73974;BME280;62336;-26.094;27.994;2022-11-03T12:47:49;84760.27;;;30.39;26.04
73974;BME280;62336;-26.094;27.994;2022-11-03T12:50:15;84758.78;;;30.60;25.64
73974;BME280;62336;-26.094;27.994;2022-11-03T12:52:40;84755.05;;;30.84;25.44
73974;BME280;62336;-26.094;27.994;2022-11-03T12:55:06;84748.21;;;30.52;25.24
73974;BME280;62336;-26.094;27.994;2022-11-03T12:57:31;84744.05;;;30.57;25.37
73974;BME280;62336;-26.094;27.994;2022-11-03T12:59:58;84743.22;;;31.02;25.31
73974;BME280;62336;-26.094;27.994;2022-11-03T13:02:23;84737.62;;;30.73;25.21
73974;BME280;62336;-26.094;27.994;2022-11-03T13:04:48;84731.17;;;30.73;24.96
73974;BME280;62336;-26.094;27.994;2022-11-03T13:07:14;84731.85;;;30.72;24.84
73974;BME280;62336;-26.094;27.994;2022-11-03T13:09:39;84730.22;;;30.96;25.06
73974;BME280;62336;-26.094;27.994;2022-11-03T13:12:05;84723.35;;;31.00;24.63
73974;BME280;62336;-26.094;27.994;2022-11-03T13:14:29;84720.73;;;31.17;24.52
73974;BME280;62336;-26.094;27.994;2022-11-03T13:16:56;84721.16;;;31.27;24.67
73974;BME280;62336;-26.094;27.994;2022-11-03T13:19:21;84722.88;;;31.02;24.69
73974;BME280;62336;-26.094;27.994;2022-11-03T13:21:46;84721.34;;;31.15;24.96
73974;BME280;62336;-26.094;27.994;2022-11-03T13:24:11;84721.27;;;30.74;24.72
73974;BME280;62336;-26.094;27.994;2022-11-03T13:26:36;84719.11;;;30.75;25.10
73974;BME280;62336;-26.094;27.994;2022-11-03T13:29:02;84719.73;;;30.58;25.33
73974;BME280;62336;-26.094;27.994;2022-11-03T13:31:27;84718.86;;;30.77;25.07
73974;BME280;62336;-26.094;27.994;2022-11-03T13:33:53;84715.11;;;31.14;24.91
73974;BME280;62336;-26.094;27.994;2022-11-03T13:36:18;84712.25;;;30.97;24.80
73974;BME280;62336;-26.094;27.994;2022-11-03T13:38:44;84708.53;;;31.41;24.78
73974;BME280;62336;-26.094;27.994;2022-11-03T13:41:09;84705.82;;;31.06;24.95
73974;BME280;62336;-26.094;27.994;2022-11-03T13:43:35;84701.37;;;31.11;25.11
73974;BME280;62336;-26.094;27.994;2022-11-03T13:45:59;84701.74;;;31.06;25.22
73974;BME280;62336;-26.094;27.994;2022-11-03T13:48:26;84698.68;;;30.96;24.86
73974;BME280;62336;-26.094;27.994;2022-11-03T13:50:51;84698.06;;;31.13;24.95
73974;BME280;62336;-26.094;27.994;2022-11-03T13:53:16;84697.31;;;30.89;25.19
73974;BME280;62336;-26.094;27.994;2022-11-03T13:55:42;84697.98;;;31.24;25.14
73974;BME280;62336;-26.094;27.994;2022-11-03T13:58:08;84694.97;;;31.28;25.02
73974;BME280;62336;-26.094;27.994;2022-11-03T14:00:33;84688.35;;;31.03;24.91
73974;BME280;62336;-26.094;27.994;2022-11-03T14:02:58;84688.06;;;31.40;24.80
73974;BME280;62336;-26.094;27.994;2022-11-03T14:05:24;84684.66;;;30.80;24.95
73974;BME280;62336;-26.094;27.994;2022-11-03T14:07:49;84683.09;;;31.27;25.26
73974;BME280;62336;-26.094;27.994;2022-11-03T14:10:15;84682.81;;;31.09;25.37
73974;BME280;62336;-26.094;27.994;2022-11-03T14:12:40;84683.88;;;31.20;25.41
73974;BME280;62336;-26.094;27.994;2022-11-03T14:15:08;84683.48;;;31.14;25.08
73974;BME280;62336;-26.094;27.994;2022-11-03T14:17:32;84684.56;;;30.96;25.30
73974;BME280;62336;-26.094;27.994;2022-11-03T14:19:58;84684.79;;;31.08;25.32
73974;BME280;62336;-26.094;27.994;2022-11-03T14:22:23;84689.58;;;31.46;25.06
73974;BME280;62336;-26.094;27.994;2022-11-03T14:24:48;84688.31;;;31.27;25.13
73974;BME280;62336;-26.094;27.994;2022-11-03T14:27:14;84687.76;;;31.29;25.06
73974;BME280;62336;-26.094;27.994;2022-11-03T14:29:40;84682.50;;;30.63;25.08
73974;BME280;62336;-26.094;27.994;2022-11-03T14:32:05;84679.55;;;31.15;25.07
73974;BME280;62336;-26.094;27.994;2022-11-03T14:34:30;84680.74;;;30.73;25.40
73974;BME280;62336;-26.094;27.994;2022-11-03T14:36:56;84682.10;;;30.92;25.65
73974;BME280;62336;-26.094;27.994;2022-11-03T14:39:21;84681.83;;;30.71;25.76
73974;BME280;62336;-26.094;27.994;2022-11-03T14:41:47;84679.96;;;31.14;25.45